createdAt,value
2023-01-27T00:02:22.792Z,7.20
2023-01-27T00:07:22.506Z,7.20
2023-01-27T00:12:44.777Z,7.30
2023-01-27T00:17:44.959Z,7.30
2023-01-27T00:23:01.748Z,7.10
2023-01-27T00:28:05.973Z,8.30
2023-01-27T00:33:23.699Z,8.80
2023-01-27T00:38:23.975Z,9.50
2023-01-27T00:43:23.245Z,8.80
2023-01-27T00:48:24.243Z,9.90
2023-01-27T00:53:24.336Z,10.20
2023-01-27T00:58:24.573Z,9.90
2023-01-27T01:03:24.540Z,10.60
2023-01-27T01:08:24.749Z,8.50
2023-01-27T01:13:24.700Z,9.30
2023-01-27T01:18:24.361Z,9.50
2023-01-27T01:23:24.027Z,10.80
2023-01-27T01:28:24.677Z,10.40
2023-01-27T01:33:24.432Z,9.20
2023-01-27T01:38:24.580Z,9.60
2023-01-27T01:43:26.882Z,9.60
2023-01-27T01:48:37.960Z,10.20
2023-01-27T01:53:47.934Z,9.80
2023-01-27T01:58:50.553Z,8.70
2023-01-27T02:03:58.419Z,9.50
2023-01-27T02:09:00.785Z,9.80
2023-01-27T02:14:05.673Z,10.80
2023-01-27T02:19:23.721Z,10.20
2023-01-27T02:24:31.726Z,9.00
2023-01-27T02:29:33.359Z,10.90
2023-01-27T02:34:39.203Z,11.40
2023-01-27T02:39:47.977Z,12.10
2023-01-27T02:44:48.381Z,12.00
2023-01-27T02:49:49.872Z,11.20
2023-01-27T02:54:54.963Z,10.90
2023-01-27T02:59:56.416Z,11.10
2023-01-27T03:04:56.909Z,10.80
2023-01-27T03:09:57.380Z,12.50
2023-01-27T03:15:15.377Z,12.00
2023-01-27T03:20:18.603Z,11.70
2023-01-27T03:25:20.296Z,11.80
2023-01-27T03:30:24.430Z,12.50
2023-01-27T03:35:46.833Z,11.50
2023-01-27T03:41:03.978Z,10.00
2023-01-27T03:46:22.593Z,10.10
2023-01-27T03:51:27.787Z,10.50
2023-01-27T03:56:28.589Z,9.50
2023-01-27T04:01:29.317Z,9.40
2023-01-27T04:06:50.804Z,9.40
2023-01-27T04:11:58.353Z,9.60
2023-01-27T04:17:01.127Z,10.30
2023-01-27T04:22:02.455Z,10.00
2023-01-27T04:27:04.126Z,9.40
2023-01-27T04:32:04.563Z,9.00
2023-01-27T04:37:05.737Z,10.60
2023-01-27T04:42:05.479Z,10.60
2023-01-27T04:47:05.233Z,9.60
2023-01-27T04:52:04.676Z,10.70
2023-01-27T04:57:05.897Z,10.40
2023-01-27T05:02:05.719Z,10.30
2023-01-27T05:07:06.271Z,11.50
2023-01-27T05:12:05.375Z,10.40
2023-01-27T05:17:05.308Z,10.70
2023-01-27T05:22:04.606Z,11.10
2023-01-27T05:27:04.549Z,13.10
2023-01-27T05:32:04.335Z,12.50
2023-01-27T05:37:07.525Z,14.40
2023-01-27T05:42:19.477Z,12.50
2023-01-27T05:47:21.388Z,12.20
2023-01-27T05:52:20.394Z,12.80
2023-01-27T05:57:30.700Z,12.00
2023-01-27T06:03:47.588Z,13.40
2023-01-27T06:08:48.974Z,11.20
2023-01-27T06:13:49.108Z,11.20
2023-01-27T06:18:52.017Z,11.80
2023-01-27T06:23:53.919Z,13.20
2023-01-27T06:28:54.993Z,11.80
2023-01-27T06:33:55.832Z,10.60
2023-01-27T06:39:01.959Z,11.50
2023-01-27T06:44:03.593Z,11.90
2023-01-27T06:49:04.972Z,14.90
2023-01-27T06:54:06.189Z,15.70
2023-01-27T06:59:06.804Z,11.40
2023-01-27T07:04:06.914Z,13.90
2023-01-27T07:09:08.268Z,11.90
2023-01-27T07:14:10.210Z,13.70
2023-01-27T07:19:13.869Z,12.30
2023-01-27T07:24:13.728Z,12.00
2023-01-27T07:29:13.024Z,10.10
2023-01-27T07:34:12.149Z,12.60
2023-01-27T07:39:11.606Z,12.90
2023-01-27T07:44:11.559Z,14.70
2023-01-27T07:49:12.779Z,12.60
2023-01-27T07:54:12.486Z,13.30
2023-01-27T07:59:13.144Z,16.40
2023-01-27T08:04:12.179Z,13.60
2023-01-27T08:09:11.970Z,11.00
2023-01-27T08:14:13.824Z,10.60
2023-01-27T08:19:13.256Z,10.70
2023-01-27T08:24:14.543Z,11.30
2023-01-27T08:29:15.598Z,12.30
2023-01-27T08:34:15.332Z,12.20
2023-01-27T08:39:15.100Z,12.00
2023-01-27T08:44:14.554Z,12.50
2023-01-27T08:49:14.634Z,13.00
2023-01-27T08:54:14.879Z,13.00
2023-01-27T08:59:14.154Z,11.70
2023-01-27T09:04:13.622Z,11.10
2023-01-27T09:09:12.779Z,7.30
2023-01-27T09:14:12.411Z,9.10
2023-01-27T09:19:11.459Z,9.80
2023-01-27T09:24:11.549Z,11.10
2023-01-27T09:29:10.456Z,12.50
2023-01-27T09:34:09.905Z,12.90
2023-01-27T09:39:12.196Z,10.50
2023-01-27T09:44:47.764Z,8.60
2023-01-27T09:50:14.521Z,8.10
2023-01-27T09:55:27.598Z,7.50
2023-01-27T10:00:53.583Z,8.30
2023-01-27T10:06:19.892Z,8.40
2023-01-27T10:11:32.014Z,9.20
2023-01-27T10:16:55.157Z,8.70
2023-01-27T10:22:11.114Z,8.80
2023-01-27T10:27:23.014Z,8.20
2023-01-27T10:32:36.019Z,8.40
2023-01-27T10:37:49.243Z,7.80
2023-01-27T10:42:56.427Z,8.50
2023-01-27T10:48:14.687Z,9.50
2023-01-27T10:53:22.462Z,7.30
2023-01-27T10:58:41.197Z,9.20
2023-01-27T11:03:46.061Z,8.60
2023-01-27T11:08:50.980Z,10.70
2023-01-27T11:13:51.207Z,7.10
2023-01-27T11:19:01.244Z,10.40
2023-01-27T11:24:13.119Z,10.00
2023-01-27T11:29:28.348Z,10.80
2023-01-27T11:34:35.837Z,10.00
2023-01-27T11:39:37.275Z,12.80
2023-01-27T11:44:40.944Z,12.90
2023-01-27T11:49:46.555Z,10.60
2023-01-27T11:54:53.447Z,9.70
2023-01-27T11:59:58.564Z,8.70
2023-01-27T12:05:08.945Z,8.60
2023-01-27T12:10:32.994Z,7.90
2023-01-27T12:15:34.964Z,7.90
2023-01-27T12:20:42.531Z,7.10
2023-01-27T12:25:52.446Z,13.00
2023-01-27T12:30:54.503Z,13.50
2023-01-27T12:35:58.907Z,11.70
2023-01-27T12:41:04.204Z,12.60
2023-01-27T12:46:22.542Z,13.00
2023-01-27T12:51:41.221Z,12.60
2023-01-27T12:56:42.425Z,11.20
2023-01-27T13:01:44.318Z,14.00
2023-01-27T13:06:50.292Z,11.70
2023-01-27T13:11:49.608Z,14.20
2023-01-27T13:16:58.644Z,13.70
2023-01-27T13:21:59.559Z,10.50
2023-01-27T13:27:03.152Z,14.60
2023-01-27T13:32:17.811Z,12.30
2023-01-27T13:37:23.875Z,15.00
2023-01-27T13:42:30.485Z,15.20
2023-01-27T13:47:36.395Z,13.90
2023-01-27T13:52:38.476Z,13.80
2023-01-27T13:58:06.000Z,13.80
2023-01-27T14:03:45.347Z,12.90
2023-01-27T14:09:08.138Z,15.70
2023-01-27T14:14:25.313Z,12.40
2023-01-27T14:19:38.371Z,14.70
2023-01-27T14:24:49.502Z,14.10
2023-01-27T14:30:03.650Z,12.70
2023-01-27T14:35:22.918Z,15.40
2023-01-27T14:40:29.761Z,11.80
2023-01-27T14:45:34.625Z,13.90
2023-01-27T14:50:47.818Z,12.80
2023-01-27T14:55:57.465Z,10.70
2023-01-27T15:01:09.974Z,15.70
2023-01-27T15:06:21.655Z,13.50
2023-01-27T15:12:09.791Z,10.70
2023-01-27T15:17:29.151Z,10.30
2023-01-27T15:22:49.240Z,11.70
2023-01-27T15:27:53.690Z,15.70
2023-01-27T15:32:54.067Z,15.00
2023-01-27T15:38:18.488Z,11.50
2023-01-27T15:43:21.862Z,13.60
2023-01-27T15:48:28.802Z,12.60
2023-01-27T15:53:36.417Z,15.20
2023-01-27T15:58:40.888Z,11.70
2023-01-27T16:03:45.154Z,16.50
2023-01-27T16:08:50.311Z,13.50
2023-01-27T16:13:51.463Z,12.10
2023-01-27T16:19:02.563Z,14.70
2023-01-27T16:24:13.308Z,12.20
2023-01-27T16:29:31.767Z,11.80
2023-01-27T16:34:40.747Z,12.00
2023-01-27T16:39:48.711Z,13.00
2023-01-27T16:44:52.923Z,15.70
2023-01-27T16:49:56.633Z,14.60
2023-01-27T16:54:59.557Z,13.00
2023-01-27T17:00:08.482Z,12.60
2023-01-27T17:05:20.520Z,18.60
2023-01-27T17:10:33.937Z,19.90
2023-01-27T17:15:43.037Z,13.70
2023-01-27T17:20:48.934Z,13.40
2023-01-27T17:25:50.570Z,12.80
2023-01-27T17:30:52.062Z,16.80
2023-01-27T17:36:00.560Z,15.70
2023-01-27T17:41:00.172Z,14.20
2023-01-27T17:46:20.622Z,12.80
2023-01-27T17:51:26.152Z,12.10
2023-01-27T17:56:32.209Z,13.20
2023-01-27T18:01:33.525Z,12.60
2023-01-27T18:06:36.032Z,12.10
2023-01-27T18:11:37.694Z,9.60
2023-01-27T18:16:37.866Z,11.20
2023-01-27T18:21:37.349Z,11.80
2023-01-27T18:26:44.758Z,12.10
2023-01-27T18:31:53.433Z,10.10
2023-01-27T18:37:00.149Z,10.00
2023-01-27T18:42:00.183Z,12.20
2023-01-27T18:47:16.047Z,11.70
2023-01-27T18:52:17.777Z,12.90
2023-01-27T18:57:17.243Z,12.00
2023-01-27T19:02:19.225Z,11.40
2023-01-27T19:07:21.556Z,10.70
2023-01-27T19:12:21.976Z,11.30
2023-01-27T19:17:24.795Z,12.00
2023-01-27T19:22:24.275Z,10.80
2023-01-27T19:27:23.952Z,10.80
2023-01-27T19:32:23.766Z,10.40
2023-01-27T19:37:23.994Z,9.40
2023-01-27T19:42:23.638Z,12.40
2023-01-27T19:47:23.157Z,9.20
2023-01-27T19:52:22.216Z,8.20
2023-01-27T19:57:23.893Z,9.80
2023-01-27T20:02:22.961Z,8.70
2023-01-27T20:07:22.036Z,8.40
2023-01-27T20:12:21.679Z,12.10
2023-01-27T20:17:20.669Z,11.90
2023-01-27T20:22:19.491Z,12.80
2023-01-27T20:27:18.774Z,10.40
2023-01-27T20:32:17.808Z,8.50
2023-01-27T20:37:17.525Z,8.70
2023-01-27T20:42:16.493Z,10.20
2023-01-27T20:47:16.897Z,10.90
2023-01-27T20:52:16.089Z,8.60
2023-01-27T20:57:15.343Z,12.30
2023-01-27T21:02:15.902Z,10.50
2023-01-27T21:07:15.427Z,10.80
2023-01-27T21:12:15.993Z,10.50
2023-01-27T21:17:15.136Z,10.70
2023-01-27T21:22:14.855Z,11.10
2023-01-27T21:27:14.821Z,10.60
2023-01-27T21:32:14.559Z,8.60
2023-01-27T21:37:13.759Z,8.70
2023-01-27T21:42:33.103Z,9.40
2023-01-27T21:47:32.610Z,8.00
2023-01-27T21:52:37.856Z,9.40
2023-01-27T21:57:38.360Z,8.40
2023-01-27T22:02:38.953Z,10.80
2023-01-27T22:07:39.124Z,9.00
2023-01-27T22:12:38.747Z,11.60
2023-01-27T22:17:38.499Z,8.30
2023-01-27T22:22:37.404Z,10.30
2023-01-27T22:27:36.602Z,9.40
2023-01-27T22:32:36.641Z,10.10
2023-01-27T22:37:37.934Z,11.00
2023-01-27T22:42:40.117Z,9.60
2023-01-27T22:47:38.918Z,8.70
2023-01-27T22:52:39.373Z,8.80
2023-01-27T22:57:38.342Z,8.70
2023-01-27T23:02:38.746Z,8.60
2023-01-27T23:07:38.748Z,8.30
2023-01-27T23:12:38.204Z,10.10
2023-01-27T23:17:37.908Z,11.00
2023-01-27T23:22:38.129Z,7.90
2023-01-27T23:27:38.395Z,11.40
2023-01-27T23:32:37.961Z,7.90
2023-01-27T23:37:38.068Z,8.90
2023-01-27T23:42:38.624Z,8.00
2023-01-27T23:47:38.078Z,7.80
2023-01-27T23:52:40.305Z,6.10
2023-01-27T23:57:39.687Z,7.90
